sensor_id;sensor_type;location;lat;lon;timestamp;P1;durP1;ratioP1;P2;durP2;ratioP2
3547;SDS011;1788;49.400;11.092;2022-11-20T00:01:13;23.90;;;12.63;;
3547;SDS011;1788;49.400;11.092;2022-11-20T00:03:39;29.60;;;13.83;;
3547;SDS011;1788;49.400;11.092;2022-11-20T00:06:06;30.70;;;14.13;;
3547;SDS011;1788;49.400;11.092;2022-11-20T00:08:32;26.53;;;13.77;;
3547;SDS011;1788;49.400;11.092;2022-11-20T00:13:25;23.87;;;13.63;;
3547;SDS011;1788;49.400;11.092;2022-11-20T00:15:56;26.27;;;12.57;;
3547;SDS011;1788;49.400;11.092;2022-11-20T00:18:18;25.60;;;13.50;;
3547;SDS011;1788;49.400;11.092;2022-11-20T00:20:45;24.23;;;13.77;;
3547;SDS011;1788;49.400;11.092;2022-11-20T00:23:12;26.33;;;13.17;;
3547;SDS011;1788;49.400;11.092;2022-11-20T00:25:39;23.80;;;13.07;;
3547;SDS011;1788;49.400;11.092;2022-11-20T00:28:06;26.73;;;13.20;;
3547;SDS011;1788;49.400;11.092;2022-11-20T00:30:33;24.47;;;12.23;;
3547;SDS011;1788;49.400;11.092;2022-11-20T00:33:00;29.67;;;14.47;;
3547;SDS011;1788;49.400;11.092;2022-11-20T00:35:26;27.70;;;13.23;;
3547;SDS011;1788;49.400;11.092;2022-11-20T00:37:53;24.10;;;12.77;;
3547;SDS011;1788;49.400;11.092;2022-11-20T00:40:19;25.83;;;12.60;;
3547;SDS011;1788;49.400;11.092;2022-11-20T00:42:46;26.60;;;13.33;;
3547;SDS011;1788;49.400;11.092;2022-11-20T00:45:13;27.07;;;13.20;;
3547;SDS011;1788;49.400;11.092;2022-11-20T00:47:39;24.13;;;12.30;;
3547;SDS011;1788;49.400;11.092;2022-11-20T00:50:06;26.47;;;13.37;;
3547;SDS011;1788;49.400;11.092;2022-11-20T00:52:33;22.00;;;13.10;;
3547;SDS011;1788;49.400;11.092;2022-11-20T00:55:00;27.53;;;14.27;;
3547;SDS011;1788;49.400;11.092;2022-11-20T00:57:27;31.47;;;12.73;;
3547;SDS011;1788;49.400;11.092;2022-11-20T00:59:53;23.23;;;13.00;;
3547;SDS011;1788;49.400;11.092;2022-11-20T01:02:20;24.23;;;12.37;;
3547;SDS011;1788;49.400;11.092;2022-11-20T01:04:46;29.90;;;14.07;;
3547;SDS011;1788;49.400;11.092;2022-11-20T01:07:13;24.87;;;12.73;;
3547;SDS011;1788;49.400;11.092;2022-11-20T01:09:40;27.43;;;14.13;;
3547;SDS011;1788;49.400;11.092;2022-11-20T01:12:06;28.67;;;12.40;;
3547;SDS011;1788;49.400;11.092;2022-11-20T01:14:34;26.30;;;13.30;;
3547;SDS011;1788;49.400;11.092;2022-11-20T01:17:00;27.73;;;12.33;;
3547;SDS011;1788;49.400;11.092;2022-11-20T01:19:27;24.57;;;12.83;;
3547;SDS011;1788;49.400;11.092;2022-11-20T01:21:54;25.03;;;12.60;;
3547;SDS011;1788;49.400;11.092;2022-11-20T01:24:21;23.90;;;12.23;;
3547;SDS011;1788;49.400;11.092;2022-11-20T01:26:47;27.03;;;12.90;;
3547;SDS011;1788;49.400;11.092;2022-11-20T01:29:15;31.27;;;12.57;;
3547;SDS011;1788;49.400;11.092;2022-11-20T01:31:41;25.57;;;11.47;;
3547;SDS011;1788;49.400;11.092;2022-11-20T01:34:11;28.10;;;13.37;;
3547;SDS011;1788;49.400;11.092;2022-11-20T01:36:34;26.23;;;12.13;;
3547;SDS011;1788;49.400;11.092;2022-11-20T01:39:01;29.80;;;13.97;;
3547;SDS011;1788;49.400;11.092;2022-11-20T01:41:29;27.40;;;13.47;;
3547;SDS011;1788;49.400;11.092;2022-11-20T01:43:54;24.47;;;12.93;;
3547;SDS011;1788;49.400;11.092;2022-11-20T01:46:21;30.20;;;12.93;;
3547;SDS011;1788;49.400;11.092;2022-11-20T01:53:41;27.73;;;12.70;;
3547;SDS011;1788;49.400;11.092;2022-11-20T01:56:09;27.03;;;13.57;;
3547;SDS011;1788;49.400;11.092;2022-11-20T01:58:35;26.73;;;13.77;;
3547;SDS011;1788;49.400;11.092;2022-11-20T02:01:02;29.90;;;14.10;;
3547;SDS011;1788;49.400;11.092;2022-11-20T02:03:29;22.77;;;12.57;;
3547;SDS011;1788;49.400;11.092;2022-11-20T02:08:23;25.93;;;12.97;;
3547;SDS011;1788;49.400;11.092;2022-11-20T02:10:49;26.90;;;12.60;;
3547;SDS011;1788;49.400;11.092;2022-11-20T02:13:15;24.87;;;12.67;;
3547;SDS011;1788;49.400;11.092;2022-11-20T02:15:43;25.20;;;12.60;;
3547;SDS011;1788;49.400;11.092;2022-11-20T02:18:10;29.57;;;13.57;;
3547;SDS011;1788;49.400;11.092;2022-11-20T02:20:36;25.20;;;13.03;;
3547;SDS011;1788;49.400;11.092;2022-11-20T02:25:29;24.90;;;11.97;;
3547;SDS011;1788;49.400;11.092;2022-11-20T02:27:56;27.47;;;13.07;;
3547;SDS011;1788;49.400;11.092;2022-11-20T02:30:22;25.90;;;13.17;;
3547;SDS011;1788;49.400;11.092;2022-11-20T02:32:49;27.93;;;13.23;;
3547;SDS011;1788;49.400;11.092;2022-11-20T02:37:42;23.90;;;12.93;;
3547;SDS011;1788;49.400;11.092;2022-11-20T02:40:09;28.00;;;12.87;;
3547;SDS011;1788;49.400;11.092;2022-11-20T02:42:36;29.57;;;13.70;;
3547;SDS011;1788;49.400;11.092;2022-11-20T02:45:03;29.80;;;13.13;;
3547;SDS011;1788;49.400;11.092;2022-11-20T02:47:29;26.83;;;13.20;;
3547;SDS011;1788;49.400;11.092;2022-11-20T02:49:56;23.87;;;12.00;;
3547;SDS011;1788;49.400;11.092;2022-11-20T02:52:24;27.57;;;13.37;;
3547;SDS011;1788;49.400;11.092;2022-11-20T02:54:50;28.93;;;13.77;;
3547;SDS011;1788;49.400;11.092;2022-11-20T02:57:17;29.53;;;14.60;;
3547;SDS011;1788;49.400;11.092;2022-11-20T02:59:43;29.30;;;12.27;;
3547;SDS011;1788;49.400;11.092;2022-11-20T03:02:10;29.00;;;13.00;;
3547;SDS011;1788;49.400;11.092;2022-11-20T03:04:36;23.37;;;12.90;;
3547;SDS011;1788;49.400;11.092;2022-11-20T03:07:03;23.50;;;13.07;;
3547;SDS011;1788;49.400;11.092;2022-11-20T03:09:30;30.07;;;14.80;;
3547;SDS011;1788;49.400;11.092;2022-11-20T03:11:56;25.33;;;14.67;;
3547;SDS011;1788;49.400;11.092;2022-11-20T03:14:23;29.27;;;14.03;;
3547;SDS011;1788;49.400;11.092;2022-11-20T03:16:50;25.90;;;13.27;;
3547;SDS011;1788;49.400;11.092;2022-11-20T03:19:16;30.17;;;14.07;;
3547;SDS011;1788;49.400;11.092;2022-11-20T03:21:43;27.07;;;13.07;;
3547;SDS011;1788;49.400;11.092;2022-11-20T03:24:09;29.57;;;13.97;;
3547;SDS011;1788;49.400;11.092;2022-11-20T03:26:36;29.20;;;15.33;;
3547;SDS011;1788;49.400;11.092;2022-11-20T03:29:03;29.87;;;13.10;;
3547;SDS011;1788;49.400;11.092;2022-11-20T03:31:30;27.63;;;12.97;;
3547;SDS011;1788;49.400;11.092;2022-11-20T03:33:56;29.33;;;13.77;;
3547;SDS011;1788;49.400;11.092;2022-11-20T03:36:25;31.53;;;13.83;;
3547;SDS011;1788;49.400;11.092;2022-11-20T03:38:50;27.33;;;14.97;;
3547;SDS011;1788;49.400;11.092;2022-11-20T03:46:10;24.57;;;12.23;;
3547;SDS011;1788;49.400;11.092;2022-11-20T03:48:37;33.60;;;14.13;;
3547;SDS011;1788;49.400;11.092;2022-11-20T03:53:31;29.63;;;13.23;;
3547;SDS011;1788;49.400;11.092;2022-11-20T03:55:58;32.63;;;14.70;;
3547;SDS011;1788;49.400;11.092;2022-11-20T03:58:24;32.90;;;14.63;;
3547;SDS011;1788;49.400;11.092;2022-11-20T04:00:51;25.57;;;12.73;;
3547;SDS011;1788;49.400;11.092;2022-11-20T04:03:18;21.63;;;12.63;;
3547;SDS011;1788;49.400;11.092;2022-11-20T04:05:44;25.20;;;12.70;;
3547;SDS011;1788;49.400;11.092;2022-11-20T04:08:11;27.13;;;12.00;;
3547;SDS011;1788;49.400;11.092;2022-11-20T04:10:38;29.83;;;13.67;;
3547;SDS011;1788;49.400;11.092;2022-11-20T04:13:05;26.33;;;12.03;;
3547;SDS011;1788;49.400;11.092;2022-11-20T04:15:31;27.20;;;11.80;;
3547;SDS011;1788;49.400;11.092;2022-11-20T04:17:58;32.27;;;13.80;;
3547;SDS011;1788;49.400;11.092;2022-11-20T04:20:25;27.30;;;13.37;;
3547;SDS011;1788;49.400;11.092;2022-11-20T04:22:53;34.27;;;13.87;;
3547;SDS011;1788;49.400;11.092;2022-11-20T04:25:18;31.73;;;13.83;;
3547;SDS011;1788;49.400;11.092;2022-11-20T04:27:45;23.90;;;12.23;;
3547;SDS011;1788;49.400;11.092;2022-11-20T04:30:11;27.17;;;12.60;;
3547;SDS011;1788;49.400;11.092;2022-11-20T04:32:39;25.40;;;12.77;;
3547;SDS011;1788;49.400;11.092;2022-11-20T04:35:05;34.33;;;12.83;;
3547;SDS011;1788;49.400;11.092;2022-11-20T04:37:32;24.33;;;11.77;;
3547;SDS011;1788;49.400;11.092;2022-11-20T04:39:58;26.20;;;13.23;;
3547;SDS011;1788;49.400;11.092;2022-11-20T04:42:25;27.07;;;13.83;;
3547;SDS011;1788;49.400;11.092;2022-11-20T04:44:52;22.63;;;10.30;;
3547;SDS011;1788;49.400;11.092;2022-11-20T04:47:19;22.80;;;12.43;;
3547;SDS011;1788;49.400;11.092;2022-11-20T04:49:46;25.87;;;12.03;;
3547;SDS011;1788;49.400;11.092;2022-11-20T04:52:13;26.43;;;12.00;;
3547;SDS011;1788;49.400;11.092;2022-11-20T04:54:40;25.30;;;10.20;;
3547;SDS011;1788;49.400;11.092;2022-11-20T04:57:07;20.17;;;10.27;;
3547;SDS011;1788;49.400;11.092;2022-11-20T04:59:34;28.47;;;11.47;;
3547;SDS011;1788;49.400;11.092;2022-11-20T05:02:01;24.00;;;11.50;;
3547;SDS011;1788;49.400;11.092;2022-11-20T05:04:28;20.87;;;10.23;;
3547;SDS011;1788;49.400;11.092;2022-11-20T05:06:55;24.83;;;11.47;;
3547;SDS011;1788;49.400;11.092;2022-11-20T05:09:22;21.43;;;11.70;;
3547;SDS011;1788;49.400;11.092;2022-11-20T05:11:48;22.47;;;10.87;;
3547;SDS011;1788;49.400;11.092;2022-11-20T05:14:15;32.20;;;12.10;;
3547;SDS011;1788;49.400;11.092;2022-11-20T05:16:41;24.47;;;10.87;;
3547;SDS011;1788;49.400;11.092;2022-11-20T05:19:08;20.23;;;9.30;;
3547;SDS011;1788;49.400;11.092;2022-11-20T05:21:35;26.00;;;12.53;;
3547;SDS011;1788;49.400;11.092;2022-11-20T05:24:01;22.13;;;11.20;;
3547;SDS011;1788;49.400;11.092;2022-11-20T05:26:28;21.83;;;10.10;;
3547;SDS011;1788;49.400;11.092;2022-11-20T05:28:54;22.10;;;10.17;;
3547;SDS011;1788;49.400;11.092;2022-11-20T05:31:22;24.33;;;11.37;;
3547;SDS011;1788;49.400;11.092;2022-11-20T05:33:48;20.33;;;9.97;;
3547;SDS011;1788;49.400;11.092;2022-11-20T05:36:14;20.13;;;10.67;;
3547;SDS011;1788;49.400;11.092;2022-11-20T05:38:41;21.27;;;9.77;;
3547;SDS011;1788;49.400;11.092;2022-11-20T05:43:36;21.60;;;9.83;;
3547;SDS011;1788;49.400;11.092;2022-11-20T05:46:02;20.93;;;9.93;;
3547;SDS011;1788;49.400;11.092;2022-11-20T05:48:29;20.50;;;9.97;;
3547;SDS011;1788;49.400;11.092;2022-11-20T05:53:22;20.30;;;10.50;;
3547;SDS011;1788;49.400;11.092;2022-11-20T05:55:55;16.87;;;9.80;;
3547;SDS011;1788;49.400;11.092;2022-11-20T05:58:15;21.60;;;11.10;;
3547;SDS011;1788;49.400;11.092;2022-11-20T06:00:43;24.17;;;12.80;;
3547;SDS011;1788;49.400;11.092;2022-11-20T06:03:09;19.13;;;9.47;;
3547;SDS011;1788;49.400;11.092;2022-11-20T06:05:36;19.93;;;9.83;;
3547;SDS011;1788;49.400;11.092;2022-11-20T06:08:03;18.97;;;8.97;;
3547;SDS011;1788;49.400;11.092;2022-11-20T06:10:29;20.47;;;9.90;;
3547;SDS011;1788;49.400;11.092;2022-11-20T06:12:57;17.27;;;9.00;;
3547;SDS011;1788;49.400;11.092;2022-11-20T06:15:23;20.80;;;10.40;;
3547;SDS011;1788;49.400;11.092;2022-11-20T06:20:16;19.13;;;9.13;;
3547;SDS011;1788;49.400;11.092;2022-11-20T06:22:43;17.70;;;8.77;;
3547;SDS011;1788;49.400;11.092;2022-11-20T06:25:10;17.17;;;9.03;;
3547;SDS011;1788;49.400;11.092;2022-11-20T06:27:36;18.07;;;8.90;;
3547;SDS011;1788;49.400;11.092;2022-11-20T06:30:03;17.47;;;8.77;;
3547;SDS011;1788;49.400;11.092;2022-11-20T06:32:29;14.67;;;8.47;;
3547;SDS011;1788;49.400;11.092;2022-11-20T06:34:57;20.17;;;10.17;;
3547;SDS011;1788;49.400;11.092;2022-11-20T06:37:23;17.27;;;9.13;;
3547;SDS011;1788;49.400;11.092;2022-11-20T06:39:50;15.63;;;9.17;;
3547;SDS011;1788;49.400;11.092;2022-11-20T06:42:17;15.07;;;7.93;;
3547;SDS011;1788;49.400;11.092;2022-11-20T06:44:43;19.63;;;9.10;;
3547;SDS011;1788;49.400;11.092;2022-11-20T06:47:11;17.10;;;10.20;;
3547;SDS011;1788;49.400;11.092;2022-11-20T06:49:37;19.77;;;11.03;;
3547;SDS011;1788;49.400;11.092;2022-11-20T06:52:05;22.23;;;11.60;;
3547;SDS011;1788;49.400;11.092;2022-11-20T06:54:31;19.77;;;9.23;;
3547;SDS011;1788;49.400;11.092;2022-11-20T06:56:58;24.47;;;12.60;;
3547;SDS011;1788;49.400;11.092;2022-11-20T06:59:24;24.40;;;11.87;;
3547;SDS011;1788;49.400;11.092;2022-11-20T07:01:51;22.80;;;11.67;;
3547;SDS011;1788;49.400;11.092;2022-11-20T07:04:18;21.83;;;12.10;;
3547;SDS011;1788;49.400;11.092;2022-11-20T07:06:45;22.90;;;11.97;;
3547;SDS011;1788;49.400;11.092;2022-11-20T07:09:12;19.33;;;10.47;;
3547;SDS011;1788;49.400;11.092;2022-11-20T07:11:38;20.10;;;9.93;;
3547;SDS011;1788;49.400;11.092;2022-11-20T07:14:05;23.63;;;10.93;;
3547;SDS011;1788;49.400;11.092;2022-11-20T07:16:32;22.17;;;11.87;;
3547;SDS011;1788;49.400;11.092;2022-11-20T07:18:59;34.03;;;16.47;;
3547;SDS011;1788;49.400;11.092;2022-11-20T07:21:25;80.63;;;30.53;;
3547;SDS011;1788;49.400;11.092;2022-11-20T07:23:52;76.67;;;31.27;;
3547;SDS011;1788;49.400;11.092;2022-11-20T07:26:19;29.20;;;14.40;;
3547;SDS011;1788;49.400;11.092;2022-11-20T07:28:46;33.43;;;18.23;;
3547;SDS011;1788;49.400;11.092;2022-11-20T07:31:13;33.77;;;15.73;;
3547;SDS011;1788;49.400;11.092;2022-11-20T07:33:41;21.50;;;15.37;;
3547;SDS011;1788;49.400;11.092;2022-11-20T07:36:07;26.27;;;14.83;;
3547;SDS011;1788;49.400;11.092;2022-11-20T07:38:34;21.13;;;13.53;;
3547;SDS011;1788;49.400;11.092;2022-11-20T07:41:01;25.40;;;13.13;;
3547;SDS011;1788;49.400;11.092;2022-11-20T07:43:28;24.60;;;12.53;;
3547;SDS011;1788;49.400;11.092;2022-11-20T07:45:55;20.43;;;12.27;;
3547;SDS011;1788;49.400;11.092;2022-11-20T07:48:21;21.37;;;11.17;;
3547;SDS011;1788;49.400;11.092;2022-11-20T07:50:48;17.70;;;10.33;;
3547;SDS011;1788;49.400;11.092;2022-11-20T07:53:15;17.70;;;11.77;;
3547;SDS011;1788;49.400;11.092;2022-11-20T07:55:42;17.87;;;10.07;;
3547;SDS011;1788;49.400;11.092;2022-11-20T07:58:10;20.63;;;11.13;;
3547;SDS011;1788;49.400;11.092;2022-11-20T08:00:36;16.43;;;9.13;;
3547;SDS011;1788;49.400;11.092;2022-11-20T08:03:03;26.33;;;13.50;;
3547;SDS011;1788;49.400;11.092;2022-11-20T08:05:30;34.90;;;16.07;;
3547;SDS011;1788;49.400;11.092;2022-11-20T08:07:56;14.97;;;8.57;;
3547;SDS011;1788;49.400;11.092;2022-11-20T08:10:23;14.23;;;8.47;;
3547;SDS011;1788;49.400;11.092;2022-11-20T08:12:50;15.73;;;8.13;;
3547;SDS011;1788;49.400;11.092;2022-11-20T08:15:16;17.90;;;8.50;;
3547;SDS011;1788;49.400;11.092;2022-11-20T08:17:43;13.17;;;7.97;;
3547;SDS011;1788;49.400;11.092;2022-11-20T08:20:09;14.90;;;7.87;;
3547;SDS011;1788;49.400;11.092;2022-11-20T08:22:37;19.17;;;9.43;;
3547;SDS011;1788;49.400;11.092;2022-11-20T08:25:03;17.93;;;8.27;;
3547;SDS011;1788;49.400;11.092;2022-11-20T08:27:31;16.23;;;9.33;;
3547;SDS011;1788;49.400;11.092;2022-11-20T08:29:57;17.50;;;8.83;;
3547;SDS011;1788;49.400;11.092;2022-11-20T08:32:23;15.27;;;8.80;;
3547;SDS011;1788;49.400;11.092;2022-11-20T08:34:50;13.47;;;7.63;;
3547;SDS011;1788;49.400;11.092;2022-11-20T08:37:16;11.70;;;8.03;;
3547;SDS011;1788;49.400;11.092;2022-11-20T08:39:43;10.63;;;6.87;;
3547;SDS011;1788;49.400;11.092;2022-11-20T08:42:10;21.90;;;11.40;;
3547;SDS011;1788;49.400;11.092;2022-11-20T08:44:36;19.63;;;11.67;;
3547;SDS011;1788;49.400;11.092;2022-11-20T08:47:03;35.40;;;18.37;;
3547;SDS011;1788;49.400;11.092;2022-11-20T08:49:29;25.23;;;11.40;;
3547;SDS011;1788;49.400;11.092;2022-11-20T08:51:57;14.67;;;7.87;;
3547;SDS011;1788;49.400;11.092;2022-11-20T08:54:23;15.23;;;8.07;;
3547;SDS011;1788;49.400;11.092;2022-11-20T08:56:50;13.90;;;7.63;;
3547;SDS011;1788;49.400;11.092;2022-11-20T08:59:17;16.73;;;7.37;;
3547;SDS011;1788;49.400;11.092;2022-11-20T09:01:43;18.00;;;7.67;;
3547;SDS011;1788;49.400;11.092;2022-11-20T09:04:11;15.13;;;9.00;;
3547;SDS011;1788;49.400;11.092;2022-11-20T09:06:37;23.30;;;10.03;;
3547;SDS011;1788;49.400;11.092;2022-11-20T09:09:04;13.33;;;7.90;;
3547;SDS011;1788;49.400;11.092;2022-11-20T09:11:31;15.53;;;8.17;;
3547;SDS011;1788;49.400;11.092;2022-11-20T09:13:58;14.43;;;8.23;;
3547;SDS011;1788;49.400;11.092;2022-11-20T09:16:24;13.63;;;7.97;;
3547;SDS011;1788;49.400;11.092;2022-11-20T09:18:52;17.13;;;7.93;;
3547;SDS011;1788;49.400;11.092;2022-11-20T09:21:18;16.13;;;7.57;;
3547;SDS011;1788;49.400;11.092;2022-11-20T09:23:46;14.60;;;6.90;;
3547;SDS011;1788;49.400;11.092;2022-11-20T09:26:13;18.40;;;7.57;;
3547;SDS011;1788;49.400;11.092;2022-11-20T09:28:40;16.80;;;9.47;;
3547;SDS011;1788;49.400;11.092;2022-11-20T09:31:07;15.83;;;9.13;;
3547;SDS011;1788;49.400;11.092;2022-11-20T09:33:34;23.70;;;9.60;;
3547;SDS011;1788;49.400;11.092;2022-11-20T09:36:01;13.77;;;8.30;;
3547;SDS011;1788;49.400;11.092;2022-11-20T09:38:28;20.17;;;9.90;;
3547;SDS011;1788;49.400;11.092;2022-11-20T09:40:57;20.07;;;10.80;;
3547;SDS011;1788;49.400;11.092;2022-11-20T09:45:58;24.20;;;12.10;;
3547;SDS011;1788;49.400;11.092;2022-11-20T09:48:18;21.47;;;13.00;;
3547;SDS011;1788;49.400;11.092;2022-11-20T09:55:34;21.67;;;12.90;;
3547;SDS011;1788;49.400;11.092;2022-11-20T09:58:01;17.50;;;9.63;;
3547;SDS011;1788;49.400;11.092;2022-11-20T10:00:28;20.07;;;9.90;;
3547;SDS011;1788;49.400;11.092;2022-11-20T10:02:56;16.10;;;8.83;;
3547;SDS011;1788;49.400;11.092;2022-11-20T10:07:51;17.87;;;9.47;;
3547;SDS011;1788;49.400;11.092;2022-11-20T10:10:15;17.20;;;9.93;;
3547;SDS011;1788;49.400;11.092;2022-11-20T10:20:09;22.70;;;11.83;;
3547;SDS011;1788;49.400;11.092;2022-11-20T10:24:56;18.47;;;12.67;;
3547;SDS011;1788;49.400;11.092;2022-11-20T10:32:16;25.10;;;14.27;;
3547;SDS011;1788;49.400;11.092;2022-11-20T10:42:08;26.83;;;14.80;;
3547;SDS011;1788;49.400;11.092;2022-11-20T10:44:32;39.60;;;17.63;;
3547;SDS011;1788;49.400;11.092;2022-11-20T10:46:59;32.13;;;15.33;;
3547;SDS011;1788;49.400;11.092;2022-11-20T10:49:26;37.07;;;16.73;;
3547;SDS011;1788;49.400;11.092;2022-11-20T10:54:22;47.27;;;21.87;;
3547;SDS011;1788;49.400;11.092;2022-11-20T10:59:20;49.07;;;21.07;;
3547;SDS011;1788;49.400;11.092;2022-11-20T11:01:42;51.63;;;19.53;;
3547;SDS011;1788;49.400;11.092;2022-11-20T11:09:04;14.10;;;8.43;;
3547;SDS011;1788;49.400;11.092;2022-11-20T11:11:30;10.00;;;7.57;;
3547;SDS011;1788;49.400;11.092;2022-11-20T11:16:23;11.63;;;7.83;;
3547;SDS011;1788;49.400;11.092;2022-11-20T11:18:49;7.67;;;6.10;;
3547;SDS011;1788;49.400;11.092;2022-11-20T11:23:43;7.23;;;5.50;;
3547;SDS011;1788;49.400;11.092;2022-11-20T11:28:37;5.63;;;4.20;;
3547;SDS011;1788;49.400;11.092;2022-11-20T11:31:03;4.63;;;4.37;;
3547;SDS011;1788;49.400;11.092;2022-11-20T11:33:31;4.80;;;4.50;;
3547;SDS011;1788;49.400;11.092;2022-11-20T11:35:58;16.00;;;9.83;;
3547;SDS011;1788;49.400;11.092;2022-11-20T11:40:53;14.70;;;8.07;;
3547;SDS011;1788;49.400;11.092;2022-11-20T11:43:20;13.97;;;8.10;;
3547;SDS011;1788;49.400;11.092;2022-11-20T11:45:51;10.27;;;7.20;;
3547;SDS011;1788;49.400;11.092;2022-11-20T11:48:14;14.37;;;8.27;;
3547;SDS011;1788;49.400;11.092;2022-11-20T11:50:47;11.23;;;8.20;;
3547;SDS011;1788;49.400;11.092;2022-11-20T11:53:09;11.93;;;7.20;;
3547;SDS011;1788;49.400;11.092;2022-11-20T12:00:29;14.30;;;7.67;;
3547;SDS011;1788;49.400;11.092;2022-11-20T12:07:53;12.60;;;8.50;;
3547;SDS011;1788;49.400;11.092;2022-11-20T12:10:21;16.10;;;11.23;;
3547;SDS011;1788;49.400;11.092;2022-11-20T12:12:48;19.03;;;12.43;;
3547;SDS011;1788;49.400;11.092;2022-11-20T12:15:13;18.27;;;10.40;;
3547;SDS011;1788;49.400;11.092;2022-11-20T12:17:39;12.63;;;8.43;;
3547;SDS011;1788;49.400;11.092;2022-11-20T12:20:10;17.03;;;9.23;;
3547;SDS011;1788;49.400;11.092;2022-11-20T12:32:25;19.00;;;14.53;;
3547;SDS011;1788;49.400;11.092;2022-11-20T12:37:17;18.13;;;12.03;;
3547;SDS011;1788;49.400;11.092;2022-11-20T12:39:41;22.07;;;14.17;;
3547;SDS011;1788;49.400;11.092;2022-11-20T12:49:32;17.77;;;12.93;;
3547;SDS011;1788;49.400;11.092;2022-11-20T12:51:58;16.30;;;13.80;;
3547;SDS011;1788;49.400;11.092;2022-11-20T13:06:37;18.30;;;12.00;;
3547;SDS011;1788;49.400;11.092;2022-11-20T13:09:04;15.00;;;10.07;;
3547;SDS011;1788;49.400;11.092;2022-11-20T13:18:53;19.23;;;11.80;;
3547;SDS011;1788;49.400;11.092;2022-11-20T13:21:21;14.80;;;10.03;;
3547;SDS011;1788;49.400;11.092;2022-11-20T13:23:47;14.67;;;9.70;;
3547;SDS011;1788;49.400;11.092;2022-11-20T13:26:15;41.93;;;23.10;;
3547;SDS011;1788;49.400;11.092;2022-11-20T13:28:41;18.03;;;11.83;;
3547;SDS011;1788;49.400;11.092;2022-11-20T13:31:09;12.37;;;9.07;;
3547;SDS011;1788;49.400;11.092;2022-11-20T13:33:36;16.83;;;10.07;;
3547;SDS011;1788;49.400;11.092;2022-11-20T13:36:03;15.47;;;11.43;;
3547;SDS011;1788;49.400;11.092;2022-11-20T13:38:46;20.60;;;12.40;;
3547;SDS011;1788;49.400;11.092;2022-11-20T13:40:57;22.20;;;13.87;;
3547;SDS011;1788;49.400;11.092;2022-11-20T13:43:26;21.80;;;13.90;;
3547;SDS011;1788;49.400;11.092;2022-11-20T13:50:46;20.40;;;10.53;;
3547;SDS011;1788;49.400;11.092;2022-11-20T14:00:29;9.97;;;7.50;;
3547;SDS011;1788;49.400;11.092;2022-11-20T14:05:22;12.67;;;8.37;;
3547;SDS011;1788;49.400;11.092;2022-11-20T14:07:49;10.70;;;7.67;;
3547;SDS011;1788;49.400;11.092;2022-11-20T14:12:42;16.97;;;14.03;;
3547;SDS011;1788;49.400;11.092;2022-11-20T14:15:23;15.67;;;10.43;;
3547;SDS011;1788;49.400;11.092;2022-11-20T14:17:35;9.37;;;6.90;;
3547;SDS011;1788;49.400;11.092;2022-11-20T14:20:04;14.07;;;9.20;;
3547;SDS011;1788;49.400;11.092;2022-11-20T14:22:29;16.57;;;10.77;;
3547;SDS011;1788;49.400;11.092;2022-11-20T14:27:23;11.80;;;9.13;;
3547;SDS011;1788;49.400;11.092;2022-11-20T14:29:50;18.50;;;13.83;;
3547;SDS011;1788;49.400;11.092;2022-11-20T14:32:18;16.23;;;10.20;;
3547;SDS011;1788;49.400;11.092;2022-11-20T14:34:44;13.93;;;8.90;;
3547;SDS011;1788;49.400;11.092;2022-11-20T14:37:11;14.63;;;9.03;;
3547;SDS011;1788;49.400;11.092;2022-11-20T14:39:41;11.87;;;6.93;;
3547;SDS011;1788;49.400;11.092;2022-11-20T14:42:14;20.00;;;9.50;;
3547;SDS011;1788;49.400;11.092;2022-11-20T14:44:32;18.23;;;10.90;;
3547;SDS011;1788;49.400;11.092;2022-11-20T14:46:58;17.73;;;11.93;;
3547;SDS011;1788;49.400;11.092;2022-11-20T14:49:25;12.73;;;9.70;;
3547;SDS011;1788;49.400;11.092;2022-11-20T14:54:19;13.87;;;9.37;;
3547;SDS011;1788;49.400;11.092;2022-11-20T14:59:22;11.37;;;8.33;;
3547;SDS011;1788;49.400;11.092;2022-11-20T15:01:39;13.90;;;8.97;;
3547;SDS011;1788;49.400;11.092;2022-11-20T15:04:07;14.80;;;8.53;;
3547;SDS011;1788;49.400;11.092;2022-11-20T15:06:33;17.30;;;9.80;;
3547;SDS011;1788;49.400;11.092;2022-11-20T15:08:59;18.33;;;10.30;;
3547;SDS011;1788;49.400;11.092;2022-11-20T15:13:53;17.97;;;9.37;;
3547;SDS011;1788;49.400;11.092;2022-11-20T15:16:22;13.90;;;9.43;;
3547;SDS011;1788;49.400;11.092;2022-11-20T15:18:48;14.67;;;8.67;;
3547;SDS011;1788;49.400;11.092;2022-11-20T15:21:16;16.87;;;9.67;;
3547;SDS011;1788;49.400;11.092;2022-11-20T15:23:42;16.93;;;10.97;;
3547;SDS011;1788;49.400;11.092;2022-11-20T15:26:08;17.23;;;10.37;;
3547;SDS011;1788;49.400;11.092;2022-11-20T15:28:36;15.17;;;10.43;;
3547;SDS011;1788;49.400;11.092;2022-11-20T15:31:01;17.87;;;10.93;;
3547;SDS011;1788;49.400;11.092;2022-11-20T15:33:29;20.27;;;10.57;;
3547;SDS011;1788;49.400;11.092;2022-11-20T15:35:55;18.07;;;10.87;;
3547;SDS011;1788;49.400;11.092;2022-11-20T15:38:23;18.73;;;10.63;;
3547;SDS011;1788;49.400;11.092;2022-11-20T15:40:49;17.70;;;10.77;;
3547;SDS011;1788;49.400;11.092;2022-11-20T15:43:16;18.40;;;10.77;;
3547;SDS011;1788;49.400;11.092;2022-11-20T15:48:11;17.37;;;9.80;;
3547;SDS011;1788;49.400;11.092;2022-11-20T15:50:37;19.43;;;11.67;;
3547;SDS011;1788;49.400;11.092;2022-11-20T15:53:03;14.57;;;10.10;;
3547;SDS011;1788;49.400;11.092;2022-11-20T15:55:30;18.03;;;10.47;;
3547;SDS011;1788;49.400;11.092;2022-11-20T15:57:57;18.13;;;10.03;;
3547;SDS011;1788;49.400;11.092;2022-11-20T16:00:24;14.23;;;9.47;;
3547;SDS011;1788;49.400;11.092;2022-11-20T16:02:52;17.30;;;11.43;;
3547;SDS011;1788;49.400;11.092;2022-11-20T16:05:18;15.43;;;8.87;;
3547;SDS011;1788;49.400;11.092;2022-11-20T16:07:45;18.43;;;10.43;;
3547;SDS011;1788;49.400;11.092;2022-11-20T16:10:11;20.27;;;12.67;;
3547;SDS011;1788;49.400;11.092;2022-11-20T16:12:38;23.40;;;13.13;;
3547;SDS011;1788;49.400;11.092;2022-11-20T16:15:05;23.03;;;14.30;;
3547;SDS011;1788;49.400;11.092;2022-11-20T16:17:32;22.47;;;14.20;;
3547;SDS011;1788;49.400;11.092;2022-11-20T16:19:58;33.07;;;18.90;;
3547;SDS011;1788;49.400;11.092;2022-11-20T16:22:25;37.03;;;22.73;;
3547;SDS011;1788;49.400;11.092;2022-11-20T16:24:52;21.13;;;13.63;;
3547;SDS011;1788;49.400;11.092;2022-11-20T16:27:18;24.00;;;16.37;;
3547;SDS011;1788;49.400;11.092;2022-11-20T16:29:45;23.10;;;14.40;;
3547;SDS011;1788;49.400;11.092;2022-11-20T16:32:12;18.83;;;11.23;;
3547;SDS011;1788;49.400;11.092;2022-11-20T16:34:38;15.17;;;10.40;;
3547;SDS011;1788;49.400;11.092;2022-11-20T16:37:05;18.77;;;12.10;;
3547;SDS011;1788;49.400;11.092;2022-11-20T16:39:32;16.80;;;11.87;;
3547;SDS011;1788;49.400;11.092;2022-11-20T16:42:00;14.83;;;9.60;;
3547;SDS011;1788;49.400;11.092;2022-11-20T16:44:26;17.30;;;10.93;;
3547;SDS011;1788;49.400;11.092;2022-11-20T16:46:53;16.43;;;11.53;;
3547;SDS011;1788;49.400;11.092;2022-11-20T16:49:19;16.87;;;9.67;;
3547;SDS011;1788;49.400;11.092;2022-11-20T16:51:47;21.87;;;12.40;;
3547;SDS011;1788;49.400;11.092;2022-11-20T16:54:13;31.00;;;16.73;;
3547;SDS011;1788;49.400;11.092;2022-11-20T16:56:40;37.30;;;18.50;;
3547;SDS011;1788;49.400;11.092;2022-11-20T16:59:08;21.40;;;12.77;;
3547;SDS011;1788;49.400;11.092;2022-11-20T17:01:34;18.57;;;10.83;;
3547;SDS011;1788;49.400;11.092;2022-11-20T17:04:03;16.90;;;10.20;;
3547;SDS011;1788;49.400;11.092;2022-11-20T17:06:29;18.63;;;12.03;;
3547;SDS011;1788;49.400;11.092;2022-11-20T17:08:56;16.53;;;10.97;;
3547;SDS011;1788;49.400;11.092;2022-11-20T17:11:24;18.40;;;11.97;;
3547;SDS011;1788;49.400;11.092;2022-11-20T17:13:50;24.47;;;13.90;;